1M5

Portland Municipal Airport

Portland, Tennessee, USA
METAR K1M5 170435Z AUTO 18004KT 8SM CLR M00/M00 A3017 RMK A01
Observed Flight Rules
Nov-17 @ 04:35 UTC (15 minutes ago) Visual Flight Rules
Wind Visibility Clouds
180° at 4 knots 8 miles
  • Clear skies
Temperatures Readings
Current 0°C / 32°F
Dewpoint 0°C / 32°F
Humidity 100%
Altimeter 30.17" Hg
Pressure 1022 hPa
Elevation 250
METAR K1M5 170435Z AUTO 18004KT 8SM CLR M00/M00 A3017 RMK A01
Observed Flight Rules
Nov-17 @ 04:35 UTC
(15 minutes ago)
VFR
Wind Visibility
180° at 4 knots 8 miles
Clouds
  • Clear skies
Temperature Dewpoint
0°C / 32°F 0°C / 32°F
Humidity Altimeter Pressure
100% 30.17" Hg 1022 hPa